Time;durP1;ratioP1;P1;durP2;ratioP2;P2;SDS_P1;SDS_P2;PMS_P1;PMS_P2;Temp;Humidity;BMP_temperature;BMP_pressure;BME280_temperature;BME280_humidity;BME280_pressure;Samples;Min_cycle;Max_cycle;Signal;HPM_P1;HPM_P2
2022/06/16 00:00:05;;;;;;;;;9.33;9.00;;;;;26.41;43.50;101440.13;5117947;27;45365;-73
2022/06/16 00:02:30;;;;;;;;;11.33;10.00;;;;;26.38;43.10;101438.47;5118063;27;45550;-75
2022/06/16 00:04:55;;;;;;;;;11.33;8.33;;;;;26.33;43.55;101438.66;5118744;27;71769;-75
2022/06/16 00:07:23;;;;;;;;;10.67;10.00;;;;;26.29;43.51;101433.47;5116929;27;67491;-74
2022/06/16 00:09:48;;;;;;;;;11.00;11.00;;;;;26.24;44.07;101439.06;5117547;27;45436;-74
2022/06/16 00:12:14;;;;;;;;;11.00;11.00;;;;;26.21;44.41;101444.63;5117634;27;45378;-75
2022/06/16 00:14:39;;;;;;;;;12.00;10.33;;;;;26.16;44.31;101446.66;5117588;27;45830;-72
2022/06/16 00:17:04;;;;;;;;;12.67;10.33;;;;;26.13;44.27;101453.09;5116563;27;60060;-73
2022/06/16 00:19:30;;;;;;;;;10.00;9.00;;;;;26.09;45.25;101459.56;5116406;27;60706;-76
2022/06/16 00:21:55;;;;;;;;;12.00;9.00;;;;;26.05;45.30;101454.38;5118070;27;45322;-73
2022/06/16 00:24:26;;;;;;;;;9.67;9.67;;;;;26.01;45.27;101448.22;5117167;27;46540;-73
2022/06/16 00:26:52;;;;;;;;;14.67;10.00;;;;;25.97;45.55;101456.53;5117658;27;45281;-73
2022/06/16 00:29:17;;;;;;;;;10.00;10.00;;;;;25.93;45.14;101455.78;5117382;27;46652;-73
2022/06/16 00:31:42;;;;;;;;;10.00;10.00;;;;;25.90;45.63;101460.47;5116572;27;58706;-76
2022/06/16 00:34:08;;;;;;;;;8.67;8.67;;;;;25.84;46.33;101457.06;5116514;27;54683;-74
2022/06/16 00:36:35;;;;;;;;;10.33;9.00;;;;;25.81;46.41;101459.00;5116804;27;45300;-73
2022/06/16 00:39:01;;;;;;;;;10.67;10.67;;;;;25.77;46.11;101457.38;5117057;27;45269;-76
2022/06/16 00:41:26;;;;;;;;;9.00;9.00;;;;;25.73;46.42;101461.16;5117244;27;45350;-74
2022/06/16 00:43:51;;;;;;;;;11.33;10.00;;;;;25.71;47.15;101473.84;5116249;27;64966;-73
2022/06/16 00:46:18;;;;;;;;;11.33;10.00;;;;;25.66;46.97;101468.63;5115840;27;67970;-73
2022/06/16 00:48:55;;;;;;;;;14.33;11.33;;;;;25.59;46.96;101468.00;5116492;27;45477;-75
2022/06/16 00:51:30;;;;;;;;;14.00;10.33;;;;;25.55;47.22;101471.75;5117334;27;45635;-76
2022/06/16 00:54:13;;;;;;;;;11.00;9.33;;;;;25.51;47.67;101472.81;5116537;27;46224;-76
2022/06/16 00:56:38;;;;;;;;;14.00;10.00;;;;;25.49;47.76;101477.44;5116842;27;45610;-73
2022/06/16 00:59:06;;;;;;;;;11.33;9.00;;;;;25.45;48.22;101474.91;5116793;27;45456;-76
2022/06/16 01:01:33;;;;;;;;;10.67;10.00;;;;;25.43;48.49;101474.97;5116820;27;45523;-74
2022/06/16 01:06:43;;;;;;;;;10.00;9.00;;;;;25.33;48.77;101498.78;5117005;27;45315;-75
2022/06/16 01:09:25;;;;;;;;;12.33;10.33;;;;;25.28;49.29;101494.50;5097461;27;45492;-73
2022/06/16 01:14:55;;;;;;;;;10.33;10.33;;;;;25.19;49.23;101497.56;5116439;27;45420;-74
2022/06/16 01:17:47;;;;;;;;;10.00;10.00;;;;;25.16;49.49;101511.22;5094074;27;45426;-74
2022/06/16 01:20:27;;;;;;;;;12.00;10.00;;;;;25.09;49.57;101507.88;5098246;27;45436;-74
2022/06/16 01:23:02;;;;;;;;;12.00;11.00;;;;;25.06;50.40;101519.69;5116755;27;45442;-74
2022/06/16 01:25:53;;;;;;;;;11.00;11.00;;;;;25.01;50.59;101518.06;5097974;27;46767;-74
2022/06/16 01:28:57;;;;;;;;;12.67;10.00;;;;;24.97;50.60;101520.00;5097980;27;45497;-73
2022/06/16 01:31:29;;;;;;;;;9.67;9.67;;;;;24.91;50.89;101525.63;5117730;27;45410;-73
2022/06/16 01:34:16;;;;;;;;;12.00;9.67;;;;;24.87;51.40;101521.28;5119540;27;45441;-74
2022/06/16 01:36:58;;;;;;;;;11.33;10.00;;;;;24.84;51.18;101526.81;5119957;27;46390;-73
2022/06/16 01:39:33;;;;;;;;;14.00;11.00;;;;;24.81;51.39;101524.19;5098260;27;45438;-74
2022/06/16 01:42:03;;;;;;;;;11.33;11.33;;;;;24.77;51.47;101533.38;5120023;27;45452;-74
2022/06/16 01:44:55;;;;;;;;;12.33;10.67;;;;;24.75;51.67;101532.53;5102093;27;45557;-73
2022/06/16 01:47:22;;;;;;;;;11.33;11.33;;;;;24.71;52.00;101536.28;5105003;27;46295;-73
2022/06/16 01:49:53;;;;;;;;;12.67;12.33;;;;;24.67;52.57;101537.34;5101584;27;45302;-75
2022/06/16 01:52:25;;;;;;;;;14.00;12.00;;;;;24.62;52.33;101536.63;5101342;27;45610;-75
2022/06/16 01:54:55;;;;;;;;;12.00;12.00;;;;;24.59;52.58;101534.03;5120193;27;45203;-73
2022/06/16 01:57:29;;;;;;;;;11.67;10.67;;;;;24.54;53.15;101537.78;5118856;27;48108;-73
2022/06/16 01:59:59;;;;;;;;;12.00;11.00;;;;;24.49;53.16;101537.06;5120042;27;45601;-73
2022/06/16 02:02:27;;;;;;;;;10.67;9.33;;;;;24.45;53.56;101548.94;5119479;27;45286;-73
2022/06/16 02:04:59;;;;;;;;;13.00;9.33;;;;;24.41;53.45;101549.97;5118897;27;45778;-75
2022/06/16 02:07:37;;;;;;;;;11.67;10.67;;;;;24.39;53.58;101541.03;5119156;27;46692;-73
2022/06/16 02:10:10;;;;;;;;;11.67;10.33;;;;;24.36;53.97;101551.94;5100881;27;46168;-75
2022/06/16 02:15:33;;;;;;;;;12.33;11.33;;;;;24.28;54.18;101559.38;5119428;27;45218;-73
2022/06/16 02:17:59;;;;;;;;;13.00;10.33;;;;;24.27;54.61;101554.91;5100645;27;46516;-74
2022/06/16 02:20:33;;;;;;;;;13.67;10.67;;;;;24.23;54.95;101556.81;5119302;27;45455;-74
2022/06/16 02:22:59;;;;;;;;;14.67;14.00;;;;;24.21;54.98;101556.00;5101270;27;45547;-75
2022/06/16 02:25:24;;;;;;;;;13.00;11.00;;;;;24.19;55.09;101555.19;5119235;27;57488;-75
2022/06/16 02:27:49;;;;;;;;;11.00;11.00;;;;;24.18;55.08;101552.53;5118041;27;65694;-74
2022/06/16 02:30:15;;;;;;;;;20.67;13.00;;;;;24.14;55.32;101551.75;5118547;27;65619;-73
2022/06/16 02:32:59;;;;;;;;;10.67;10.67;;;;;24.11;55.35;101557.25;5118208;27;61919;-74
2022/06/16 02:35:42;;;;;;;;;13.67;12.00;;;;;24.06;55.74;101553.81;5100295;27;45323;-73
2022/06/16 02:38:18;;;;;;;;;11.67;11.33;;;;;24.01;56.03;101556.66;5098777;27;45639;-76
2022/06/16 02:40:58;;;;;;;;;12.00;12.00;;;;;23.98;56.59;101561.31;5100423;27;45468;-73
2022/06/16 02:44:01;;;;;;;;;14.33;12.00;;;;;23.94;56.62;101562.34;5119430;27;45370;-74
2022/06/16 02:46:37;;;;;;;;;13.67;13.00;;;;;23.91;56.74;101565.13;5119614;27;46268;-74
2022/06/16 02:49:21;;;;;;;;;13.00;10.67;;;;;23.87;57.10;101558.97;5099808;27;46471;-73
2022/06/16 02:52:26;;;;;;;;;12.00;11.00;;;;;23.83;57.17;101561.81;5100609;27;45570;-73
2022/06/16 02:55:19;;;;;;;;;12.33;12.33;;;;;23.82;56.93;101565.44;5100616;27;45451;-74
2022/06/16 02:57:51;;;;;;;;;15.67;14.33;;;;;23.78;57.23;101570.03;5100401;27;45514;-75
2022/06/16 03:00:22;;;;;;;;;15.67;11.00;;;;;23.75;57.77;101570.13;5110557;27;47493;-75
2022/06/16 03:02:48;;;;;;;;;13.33;12.00;;;;;23.73;57.46;101577.41;5118768;27;45607;-73
2022/06/16 03:05:15;;;;;;;;;10.00;9.67;;;;;23.71;57.78;101573.88;5118061;27;45589;-74
2022/06/16 03:07:43;;;;;;;;;13.00;13.00;;;;;23.67;58.16;101573.09;5118475;27;45255;-75
2022/06/16 03:10:12;;;;;;;;;12.33;12.33;;;;;23.67;58.69;101575.78;5116580;27;47398;-73
2022/06/16 03:12:38;;;;;;;;;13.67;11.67;;;;;23.63;58.41;101581.31;5118851;27;45264;-76
2022/06/16 03:15:04;;;;;;;;;12.33;11.33;;;;;23.60;58.22;101584.97;5117398;27;62511;-74
2022/06/16 03:17:31;;;;;;;;;13.33;12.33;;;;;23.59;58.52;101587.69;5117419;27;45495;-75
2022/06/16 03:19:57;;;;;;;;;11.33;11.33;;;;;23.55;58.65;101581.53;5118187;27;46855;-74
2022/06/16 03:22:22;;;;;;;;;17.33;13.00;;;;;23.51;58.61;101596.91;5118101;27;45381;-74
2022/06/16 03:24:47;;;;;;;;;13.67;13.00;;;;;23.47;59.11;101589.84;5117991;27;45680;-73
2022/06/16 03:27:13;;;;;;;;;15.67;14.33;;;;;23.46;59.29;101603.38;5117507;27;59340;-75
2022/06/16 03:29:39;;;;;;;;;14.00;14.00;;;;;23.43;59.36;101589.97;5117256;27;68681;-74
2022/06/16 03:32:04;;;;;;;;;14.00;12.33;;;;;23.38;59.68;101598.19;5118367;27;45390;-73
2022/06/16 03:34:30;;;;;;;;;15.00;14.33;;;;;23.34;60.01;101596.53;5117813;27;45290;-74
2022/06/16 03:36:56;;;;;;;;;16.00;12.00;;;;;23.30;60.07;101593.97;5118457;27;45482;-75
2022/06/16 03:39:21;;;;;;;;;19.33;14.67;;;;;23.27;59.95;101597.63;5118048;27;47275;-73
2022/06/16 03:41:47;;;;;;;;;14.33;13.67;;;;;23.27;60.18;101601.22;5118132;27;45475;-73
2022/06/16 03:44:12;;;;;;;;;15.33;13.67;;;;;23.27;60.27;101600.31;5117794;27;56127;-73
2022/06/16 03:46:37;;;;;;;;;12.00;12.00;;;;;23.23;60.20;101602.25;5116822;27;45484;-75
2022/06/16 03:49:03;;;;;;;;;15.67;14.00;;;;;23.22;60.24;101599.56;5117878;27;57261;-73
2022/06/16 03:51:29;;;;;;;;;15.00;14.00;;;;;23.19;60.52;101599.69;5117751;27;45599;-73
2022/06/16 03:53:54;;;;;;;;;17.33;12.67;;;;;23.16;60.34;101602.44;5117388;27;46091;-74
2022/06/16 03:56:20;;;;;;;;;16.67;15.00;;;;;23.11;60.48;101607.97;5117777;27;45334;-73
2022/06/16 03:58:45;;;;;;;;;16.67;14.67;;;;;23.11;61.04;101609.78;5117449;27;46597;-74
2022/06/16 04:01:10;;;;;;;;;10.00;9.00;;;;;23.06;60.66;101612.59;5116367;27;64183;-75
2022/06/16 04:06:20;;;;;;;;;14.33;13.00;;;;;22.98;61.34;101609.25;5112210;27;45298;-74
2022/06/16 04:08:46;;;;;;;;;16.00;13.33;;;;;22.96;61.22;101611.13;5117307;27;45368;-73
2022/06/16 04:11:30;;;;;;;;;18.67;16.67;;;;;22.93;61.45;101614.78;5111712;27;45794;-73
2022/06/16 04:14:08;;;;;;;;;16.33;13.33;;;;;22.95;61.43;101615.59;5117620;27;45366;-74
2022/06/16 04:16:36;;;;;;;;;14.67;12.67;;;;;22.94;61.38;101618.34;5117957;27;45562;-73
2022/06/16 04:19:02;;;;;;;;;20.00;13.00;;;;;22.92;61.54;101613.00;5117378;27;47413;-73
2022/06/16 04:21:28;;;;;;;;;14.00;12.33;;;;;22.94;61.99;101619.22;5116657;27;45390;-72
2022/06/16 04:23:54;;;;;;;;;16.33;14.00;;;;;22.92;61.83;101617.50;5117212;27;45424;-74
2022/06/16 04:26:19;;;;;;;;;16.00;14.33;;;;;22.90;62.23;101625.63;5117487;27;45601;-73
2022/06/16 04:28:45;;;;;;;;;14.00;14.00;;;;;22.89;61.93;101629.25;5117337;27;47277;-72
2022/06/16 04:31:10;;;;;;;;;16.67;14.33;;;;;22.88;62.23;101629.28;5116352;27;45342;-75
2022/06/16 04:33:35;;;;;;;;;18.00;15.67;;;;;22.85;62.20;101634.72;5115599;27;64463;-75
2022/06/16 04:36:01;;;;;;;;;16.33;15.00;;;;;22.83;62.36;101632.06;5117170;27;45523;-73
2022/06/16 04:38:27;;;;;;;;;15.00;15.00;;;;;22.82;62.28;101640.19;5110557;27;47590;-72
2022/06/16 04:40:52;;;;;;;;;13.00;12.00;;;;;22.81;62.53;101650.09;5109108;27;67188;-73
2022/06/16 04:43:19;;;;;;;;;14.00;14.00;;;;;22.81;62.67;101642.00;5111286;27;45456;-73
2022/06/16 04:45:44;;;;;;;;;14.33;14.33;;;;;22.79;63.07;101649.22;5117444;27;45564;-72
2022/06/16 04:48:11;;;;;;;;;15.67;14.00;;;;;22.78;63.06;101650.16;5115207;27;47451;-74
2022/06/16 04:50:36;;;;;;;;;17.67;15.67;;;;;22.74;62.90;101645.78;5116792;27;45562;-72
2022/06/16 04:53:02;;;;;;;;;16.00;11.67;;;;;22.72;63.09;101651.22;5116934;27;45487;-73
2022/06/16 04:55:28;;;;;;;;;18.33;14.67;;;;;22.70;63.48;101646.81;5116761;27;45641;-73
2022/06/16 04:57:56;;;;;;;;;16.33;15.00;;;;;22.66;63.49;101653.19;5115513;27;46540;-72
2022/06/16 05:00:21;;;;;;;;;15.00;14.67;;;;;22.59;64.00;101657.84;5117034;27;45301;-71
2022/06/16 05:02:47;;;;;;;;;17.67;14.33;;;;;22.51;64.72;101672.41;5116370;27;45425;-72
2022/06/16 05:05:13;;;;;;;;;18.00;15.67;;;;;22.41;65.30;101674.44;5115640;27;45604;-71
2022/06/16 05:07:38;;;;;;;;;17.00;16.00;;;;;22.31;65.61;101683.66;5115240;27;47271;-72
2022/06/16 05:10:04;;;;;;;;;16.33;14.67;;;;;22.22;65.62;101679.41;5118438;27;67605;-72
2022/06/16 05:12:30;;;;;;;;;17.00;15.00;;;;;22.14;65.78;101673.31;5120833;27;45506;-72
2022/06/16 05:14:55;;;;;;;;;19.33;14.67;;;;;22.12;65.88;101680.53;5120898;27;45398;-71
2022/06/16 05:17:20;;;;;;;;;19.00;15.00;;;;;22.12;66.44;101683.22;5118391;27;69217;-71
2022/06/16 05:19:46;;;;;;;;;15.00;15.00;;;;;22.09;66.83;101683.25;5119780;27;55164;-71
2022/06/16 05:22:11;;;;;;;;;16.67;13.67;;;;;22.12;67.33;101694.00;5120818;27;45328;-71
2022/06/16 05:24:37;;;;;;;;;20.33;14.67;;;;;22.08;67.49;101694.94;5119928;27;45601;-71
2022/06/16 05:27:04;;;;;;;;;18.67;16.00;;;;;22.05;68.50;101713.81;5119979;27;47438;-72
2022/06/16 05:29:30;;;;;;;;;15.33;14.33;;;;;22.04;68.86;101723.69;5119780;27;45459;-71
2022/06/16 05:31:55;;;;;;;;;15.33;15.00;;;;;21.96;69.28;101715.81;5119755;27;45532;-71
2022/06/16 05:34:21;;;;;;;;;18.33;18.33;;;;;21.91;69.89;101731.16;5118728;27;62214;-71
2022/06/16 05:36:47;;;;;;;;;16.33;12.33;;;;;21.88;69.35;101727.66;5120091;27;45345;-71
2022/06/16 05:39:12;;;;;;;;;15.67;15.67;;;;;21.86;70.16;101733.06;5118824;27;45478;-71
2022/06/16 05:41:39;;;;;;;;;18.00;16.00;;;;;21.84;71.13;101740.28;5120089;27;45517;-71
2022/06/16 05:44:05;;;;;;;;;16.67;15.00;;;;;21.80;72.52;101743.97;5120224;27;45377;-71
2022/06/16 05:46:30;;;;;;;;;16.33;16.33;;;;;21.77;72.91;101753.88;5119061;27;46659;-71
2022/06/16 05:48:55;;;;;;;;;16.33;15.33;;;;;21.71;72.41;101750.41;5117801;27;58147;-71
2022/06/16 05:51:23;;;;;;;;;14.67;14.00;;;;;21.67;72.40;101737.94;5119809;27;52750;-70
2022/06/16 05:53:49;;;;;;;;;18.00;15.67;;;;;21.68;73.01;101746.91;5113487;27;45686;-71
2022/06/16 05:56:15;;;;;;;;;21.33;18.33;;;;;21.70;72.10;101748.63;5116942;27;47326;-71
2022/06/16 05:58:41;;;;;;;;;20.33;17.33;;;;;21.70;72.42;101754.00;5118579;27;46289;-70
2022/06/16 06:03:43;;;;;;;;;19.33;18.67;;;;;21.79;71.93;101750.25;5117780;25;45550;-71
2022/06/16 06:06:08;;;;;;;;;16.33;15.33;;;;;21.83;71.75;101748.38;5117163;27;47364;-71
2022/06/16 06:17:04;;;;;;;;;22.33;17.33;;;;;21.89;72.33;101765.28;5117271;27;45849;-71
2022/06/16 06:19:31;;;;;;;;;18.67;17.00;;;;;21.91;72.38;101776.00;5112605;27;71464;-72
2022/06/16 06:22:14;;;;;;;;;24.33;19.33;;;;;21.94;71.02;101762.47;5114398;27;45455;-71
2022/06/16 06:24:42;;;;;;;;;17.67;17.33;;;;;21.98;71.56;101769.56;5117002;27;45856;-72
2022/06/16 06:27:15;;;;;;;;;17.67;16.33;;;;;22.00;71.82;101772.22;5116590;27;47586;-71
2022/06/16 06:29:42;;;;;;;;;19.67;18.33;;;;;22.03;71.66;101774.84;5099526;27;45397;-71
2022/06/16 06:32:08;;;;;;;;;19.67;16.67;;;;;22.05;71.03;101779.28;5111648;27;46147;-71
2022/06/16 06:34:33;;;;;;;;;17.67;16.67;;;;;22.13;70.93;101789.91;5092915;27;45812;-77
2022/06/16 06:36:58;;;;;;;;;18.33;17.00;;;;;22.18;70.57;101790.69;5112711;27;52801;-74
2022/06/16 06:39:24;;;;;;;;;17.00;16.67;;;;;22.25;70.11;101792.31;5118128;27;67124;-75
2022/06/16 06:41:49;;;;;;;;;17.33;16.67;;;;;22.33;69.50;101789.47;5117574;27;64240;-75
2022/06/16 06:44:14;;;;;;;;;18.33;15.67;;;;;22.41;69.50;101787.47;5119150;27;45508;-75
2022/06/16 06:46:40;;;;;;;;;24.00;17.00;;;;;22.48;69.30;101794.50;5118197;27;47254;-75
2022/06/16 06:49:06;;;;;;;;;16.33;16.00;;;;;22.56;68.83;101794.31;5116420;27;45499;-75
2022/06/16 06:51:31;;;;;;;;;19.67;16.67;;;;;22.61;68.42;101797.78;5120897;27;45447;-75
2022/06/16 06:53:57;;;;;;;;;18.33;14.33;;;;;;;;5118809;27;45536;-75
2022/06/16 06:56:23;;;;;;;;;19.67;16.00;;;;;22.70;68.15;101797.56;5119666;27;45707;-74
2022/06/16 06:58:48;;;;;;;;;17.67;15.33;;;;;22.77;67.64;101801.00;5119880;27;45307;-75
2022/06/16 07:01:14;;;;;;;;;15.33;15.00;;;;;22.81;67.35;101800.00;5118884;27;58596;-75
2022/06/16 07:03:39;;;;;;;;;17.00;13.00;;;;;22.89;66.65;101808.81;5117134;27;47656;-75
2022/06/16 07:06:04;;;;;;;;;15.33;13.33;;;;;22.94;66.33;101807.75;5114857;27;64714;-76
2022/06/16 07:08:30;;;;;;;;;14.00;13.00;;;;;23.00;65.86;101802.22;5113665;27;45511;-74
2022/06/16 07:10:56;;;;;;;;;16.33;13.67;;;;;23.06;65.90;101803.00;5098174;27;45441;-75
2022/06/16 07:13:21;;;;;;;;;12.67;11.33;;;;;23.09;65.68;101809.19;5115935;27;62517;-75
2022/06/16 07:15:47;;;;;;;;;18.00;16.67;;;;;23.18;65.20;101829.66;5114361;27;46364;-75
2022/06/16 07:18:12;;;;;;;;;12.67;12.67;;;;;23.21;65.24;101822.34;5115253;27;65587;-74
2022/06/16 07:20:38;;;;;;;;;14.67;13.00;;;;;23.26;64.55;101831.19;5118732;27;45527;-75
2022/06/16 07:23:04;;;;;;;;;16.67;13.00;;;;;23.30;64.31;101823.94;5118876;27;45642;-75
2022/06/16 07:25:29;;;;;;;;;18.67;17.00;;;;;23.37;63.89;101830.91;5118207;27;47363;-75
2022/06/16 07:27:56;;;;;;;;;19.33;16.00;;;;;23.43;63.73;101829.88;5117569;27;56945;-75
2022/06/16 07:30:22;;;;;;;;;12.67;12.00;;;;;23.49;62.90;101833.31;5117023;27;45694;-75
2022/06/16 07:32:48;;;;;;;;;14.00;11.33;;;;;23.52;62.53;101833.22;5116891;27;45244;-75
2022/06/16 07:35:16;;;;;;;;;16.00;14.00;;;;;23.58;62.32;101834.84;5112879;27;65218;-75
2022/06/16 07:37:42;;;;;;;;;13.67;11.00;;;;;23.63;61.74;101838.34;5111547;27;45417;-74
2022/06/16 07:40:08;;;;;;;;;12.00;10.00;;;;;23.69;61.20;101842.69;5118420;27;46995;-74
2022/06/16 07:42:34;;;;;;;;;11.67;11.00;;;;;23.74;60.99;101848.84;5110289;27;45313;-74
2022/06/16 07:45:00;;;;;;;;;11.33;10.67;;;;;23.77;60.91;101841.56;5118328;27;45753;-75
2022/06/16 07:47:26;;;;;;;;;11.33;9.67;;;;;23.83;60.01;101848.59;5117389;27;45417;-73
2022/06/16 07:49:51;;;;;;;;;34.67;17.33;;;;;23.88;59.82;101852.06;5118444;27;45260;-73
2022/06/16 07:52:17;;;;;;;;;16.00;10.67;;;;;23.88;59.09;101848.47;5117530;27;54046;-74
2022/06/16 07:54:43;;;;;;;;;8.00;8.00;;;;;23.92;58.88;101847.47;5115874;27;46254;-75
2022/06/16 07:57:09;;;;;;;;;10.33;9.00;;;;;23.96;58.67;101828.41;5118124;27;45357;-74
2022/06/16 07:59:35;;;;;;;;;14.00;10.00;;;;;24.01;58.05;101834.56;5113088;27;45529;-76
2022/06/16 08:02:00;;;;;;;;;12.67;8.00;;;;;24.07;58.13;101829.94;5118748;27;48279;-75
2022/06/16 08:04:26;;;;;;;;;9.00;9.00;;;;;24.13;57.36;101833.34;5113912;27;46883;-76
2022/06/16 08:06:52;;;;;;;;;13.33;10.67;;;;;24.19;56.37;101837.69;5108227;27;45299;-76
2022/06/16 08:09:17;;;;;;;;;8.67;8.67;;;;;24.22;54.97;101837.56;5117622;27;45264;-74
2022/06/16 08:14:27;;;;;;;;;11.00;8.00;;;;;24.27;54.37;101844.59;5117918;27;45907;-74
2022/06/16 08:16:52;;;;;;;;;8.00;7.00;;;;;24.32;54.83;101836.38;5117388;27;48701;-75
2022/06/16 08:19:18;;;;;;;;;8.00;7.00;;;;;24.35;53.34;101847.13;5118001;27;45413;-75
2022/06/16 08:21:44;;;;;;;;;11.00;8.67;;;;;24.37;52.55;101841.66;5111255;27;45523;-75
2022/06/16 08:24:09;;;;;;;;;9.00;9.00;;;;;24.40;53.28;101847.88;5117468;27;47455;-74
2022/06/16 08:26:36;;;;;;;;;6.67;6.00;;;;;24.46;52.81;101841.41;5108366;27;45586;-75
2022/06/16 08:29:02;;;;;;;;;13.00;9.67;;;;;24.50;52.50;101845.75;5113999;27;45398;-75
2022/06/16 08:31:27;;;;;;;;;9.33;8.00;;;;;24.54;51.35;101845.59;5115255;27;47169;-75
2022/06/16 08:33:53;;;;;;;;;10.67;8.00;;;;;24.59;51.07;101845.47;5095985;27;45616;-76
2022/06/16 08:36:20;;;;;;;;;3.33;3.33;;;;;24.61;51.10;101843.63;5111383;27;45314;-75
2022/06/16 08:38:45;;;;;;;;;8.00;8.00;;;;;24.67;51.19;101845.25;5117578;27;45214;-75
2022/06/16 08:41:17;;;;;;;;;8.00;8.00;;;;;24.73;50.64;101842.34;5117053;27;45611;-76
2022/06/16 08:43:55;;;;;;;;;14.00;10.67;;;;;24.76;50.19;101839.53;5098557;27;46665;-75
2022/06/16 08:46:21;;;;;;;;;9.00;7.67;;;;;24.80;50.21;101839.38;5098849;27;45453;-75
2022/06/16 08:49:00;;;;;;;;;11.00;11.00;;;;;24.87;49.88;101839.19;5098257;27;45638;-75
2022/06/16 08:51:38;;;;;;;;;11.33;7.67;;;;;24.91;49.23;101838.16;5099227;27;45310;-75
2022/06/16 08:54:18;;;;;;;;;7.00;7.00;;;;;24.98;48.56;101851.44;5096839;27;46416;-75
2022/06/16 08:57:05;;;;;;;;;6.33;6.33;;;;;25.03;49.21;101846.72;5111383;27;45594;-75
2022/06/16 08:59:44;;;;;;;;;7.00;7.00;;;;;25.10;49.32;101843.88;5116933;27;45507;-75
2022/06/16 09:02:34;;;;;;;;;7.00;6.00;;;;;25.16;48.88;101841.84;5117116;27;45626;-74
2022/06/16 09:05:05;;;;;;;;;7.33;7.33;;;;;25.21;48.62;101837.19;5111839;27;46291;-75
2022/06/16 09:07:40;;;;;;;;;6.67;6.67;;;;;25.23;47.36;101837.13;5098945;27;45458;-75
2022/06/16 09:10:16;;;;;;;;;7.33;6.00;;;;;25.25;47.24;101830.75;5115877;27;45517;-76
2022/06/16 09:12:54;;;;;;;;;6.00;6.00;;;;;25.31;46.51;101824.22;5111941;27;45595;-75
2022/06/16 09:15:41;;;;;;;;;7.00;7.00;;;;;25.34;47.00;101829.50;5108415;27;46585;-75
2022/06/16 09:18:29;;;;;;;;;13.00;10.33;;;;;25.39;46.29;101832.94;5110464;27;45522;-75
2022/06/16 09:21:10;;;;;;;;;9.33;8.00;;;;;25.47;46.31;101832.69;5114944;27;45605;-75
2022/06/16 09:23:50;;;;;;;;;8.33;7.00;;;;;25.51;44.74;101837.91;5098243;27;45461;-75
2022/06/16 09:26:35;;;;;;;;;9.33;4.67;;;;;25.55;44.44;101836.00;5116153;27;46427;-75
2022/06/16 09:29:10;;;;;;;;;6.67;6.00;;;;;25.61;44.77;101849.28;5095739;27;45671;-75
2022/06/16 09:31:44;;;;;;;;;8.33;7.00;;;;;25.65;44.03;101845.56;5098142;27;45322;-75
2022/06/16 09:34:18;;;;;;;;;7.67;5.67;;;;;25.68;44.56;101841.88;5113207;27;45409;-75
2022/06/16 09:36:51;;;;;;;;;7.33;6.00;;;;;25.73;43.89;101843.47;5097226;27;46271;-75
2022/06/16 09:39:21;;;;;;;;;6.00;6.00;;;;;25.81;44.34;101846.81;5097736;27;45382;-75
2022/06/16 09:45:11;;;;;;;;;11.33;7.33;;;;;25.99;44.52;101836.22;5109954;27;45489;-75
2022/06/16 09:47:48;;;;;;;;;12.67;9.00;;;;;26.02;44.34;101818.06;5087839;27;46765;-75
2022/06/16 09:50:19;;;;;;;;;8.67;5.00;;;;;26.06;44.31;101819.72;5115128;27;45517;-75
2022/06/16 09:52:50;;;;;;;;;6.00;6.00;;;;;26.11;43.00;101817.72;5117561;27;45548;-75
2022/06/16 09:55:22;;;;;;;;;6.33;6.33;;;;;26.13;43.32;101814.94;5101245;27;45405;-74
2022/06/16 09:57:53;;;;;;;;;11.33;7.00;;;;;26.17;43.22;101813.00;5101438;27;47409;-75
2022/06/16 10:00:21;;;;;;;;;5.67;5.67;;;;;26.24;43.59;101806.41;5101510;27;45308;-75
2022/06/16 10:02:49;;;;;;;;;7.00;6.00;;;;;26.31;43.02;101810.63;5119380;27;45651;-75
2022/06/16 10:05:32;;;;;;;;;12.00;7.00;;;;;26.36;43.39;101805.91;5115056;27;45581;-75
2022/06/16 10:08:05;;;;;;;;;9.00;6.67;;;;;26.42;43.13;101818.38;5099034;27;46599;-75
2022/06/16 10:10:39;;;;;;;;;6.67;6.00;;;;;26.45;41.78;101826.38;5092583;27;45502;-75
2022/06/16 10:13:32;;;;;;;;;9.67;8.00;;;;;26.50;41.83;101824.38;5117450;27;45585;-75
2022/06/16 10:16:12;;;;;;;;;7.00;7.00;;;;;26.53;42.07;101817.03;5116806;27;45506;-75
2022/06/16 10:18:38;;;;;;;;;8.00;8.00;;;;;26.56;41.76;101802.47;5101308;27;46561;-75
2022/06/16 10:21:07;;;;;;;;;7.33;5.00;;;;;26.62;42.21;101808.50;5115838;27;45475;-75
2022/06/16 10:23:39;;;;;;;;;5.00;5.00;;;;;26.68;41.95;101820.03;5113474;27;45392;-75
2022/06/16 10:26:06;;;;;;;;;6.33;5.33;;;;;26.73;42.13;101820.75;5099797;27;45565;-76
2022/06/16 10:28:32;;;;;;;;;12.00;9.00;;;;;26.79;42.11;101812.34;5119470;27;46553;-75
2022/06/16 10:30:59;;;;;;;;;6.00;5.00;;;;;26.85;40.99;101815.72;5119334;27;45634;-74
2022/06/16 10:33:31;;;;;;;;;8.67;6.00;;;;;26.90;41.66;101818.25;5100533;27;45488;-76
2022/06/16 10:36:00;;;;;;;;;7.67;5.00;;;;;26.98;40.28;101817.91;5119155;27;45474;-77
2022/06/16 10:38:33;;;;;;;;;7.00;4.67;;;;;27.02;40.52;101811.41;5098430;27;47311;-75
2022/06/16 10:41:01;;;;;;;;;9.67;8.00;;;;;27.07;41.51;101810.31;5118958;27;45437;-77
2022/06/16 10:43:27;;;;;;;;;7.67;7.00;;;;;27.15;40.80;101805.44;5100685;27;45570;-75
2022/06/16 10:46:00;;;;;;;;;7.00;6.00;;;;;27.23;40.80;101809.66;5100950;27;45369;-77
2022/06/16 10:48:32;;;;;;;;;9.33;7.00;;;;;27.31;40.23;101807.47;5100048;27;47590;-77
2022/06/16 10:51:19;;;;;;;;;7.00;5.00;;;;;27.37;39.53;101796.34;5119107;27;45376;-75
2022/06/16 10:53:59;;;;;;;;;7.00;7.00;;;;;27.43;38.69;101804.22;5119036;27;45526;-75
2022/06/16 10:56:26;;;;;;;;;6.00;6.00;;;;;27.49;39.87;101809.41;5116536;27;45579;-75
2022/06/16 10:59:05;;;;;;;;;6.67;6.67;;;;;27.55;39.99;101811.84;5118724;27;46488;-77
2022/06/16 11:01:31;;;;;;;;;6.00;6.00;;;;;27.60;39.74;101806.22;5113386;27;45227;-75
2022/06/16 11:04:08;;;;;;;;;9.67;8.00;;;;;27.66;39.42;101809.53;5098495;27;45859;-75
2022/06/16 11:06:38;;;;;;;;;8.00;8.00;;;;;27.76;38.89;101804.59;5100325;27;45584;-76
2022/06/16 11:09:05;;;;;;;;;9.67;8.33;;;;;27.83;39.23;101805.19;5099873;27;46831;-76
2022/06/16 11:12:12;;;;;;;;;8.67;6.00;;;;;27.92;39.01;101804.78;5099997;27;47208;-75
2022/06/16 11:14:44;;;;;;;;;8.67;8.00;;;;;28.00;39.46;101807.13;5015102;28;45456;-77
2022/06/16 11:17:17;;;;;;;;;8.67;8.67;;;;;28.06;38.85;101799.56;5105953;27;45571;-75
2022/06/16 11:19:49;;;;;;;;;10.00;9.00;;;;;28.12;38.79;101804.72;5099697;27;46335;-75
2022/06/16 11:22:30;;;;;;;;;8.67;6.00;;;;;28.18;38.50;101806.28;5117930;27;45427;-76
2022/06/16 11:24:59;;;;;;;;;8.00;6.33;;;;;28.20;39.35;101807.97;5111349;27;45342;-76
2022/06/16 11:27:24;;;;;;;;;10.00;7.67;;;;;28.24;38.72;101811.44;5117780;27;45358;-76
2022/06/16 11:29:50;;;;;;;;;7.33;7.33;;;;;28.27;38.90;101810.38;5111654;27;47461;-75
2022/06/16 11:32:19;;;;;;;;;6.00;6.00;;;;;28.31;38.69;101821.03;5112716;27;45365;-76
2022/06/16 11:34:46;;;;;;;;;10.00;7.33;;;;;28.35;38.90;101810.94;5117977;27;45323;-75
2022/06/16 11:37:22;;;;;;;;;7.00;7.00;;;;;28.39;38.08;101809.81;5118462;27;45524;-75
2022/06/16 11:40:26;;;;;;;;;7.67;6.00;;;;;28.50;37.73;101806.59;5113720;27;46548;-75
2022/06/16 11:43:00;;;;;;;;;3.33;2.67;;;;;28.59;36.40;101807.03;5083497;27;45348;-75
2022/06/16 11:45:34;;;;;;;;;10.00;8.33;;;;;28.70;37.21;101799.22;5118325;27;45199;-75
2022/06/16 11:48:12;;;;;;;;;8.67;7.33;;;;;28.78;37.02;101796.13;5117697;27;45546;-75
2022/06/16 11:50:46;;;;;;;;;6.00;6.00;;;;;28.89;36.74;101807.34;5089987;27;46377;-75
2022/06/16 11:53:33;;;;;;;;;8.00;6.00;;;;;29.02;37.45;101807.63;5097818;27;45242;-75
2022/06/16 11:56:01;;;;;;;;;8.67;7.33;;;;;29.14;37.48;101801.59;5113400;27;45319;-76